createdAt,value
2018-02-06T00:01:57.714Z,18.77
2018-02-06T00:04:25.375Z,21.20
2018-02-06T00:06:52.927Z,19.00
2018-02-06T00:09:20.495Z,23.40
2018-02-06T00:11:52.075Z,22.43
2018-02-06T00:14:21.079Z,21.80
2018-02-06T00:16:49.235Z,17.97
2018-02-06T00:19:16.986Z,18.40
2018-02-06T00:21:45.294Z,22.40
2018-02-06T00:24:13.640Z,20.10
2018-02-06T00:26:42.911Z,20.00
2018-02-06T00:29:10.511Z,19.83
2018-02-06T00:31:38.463Z,19.03
2018-02-06T00:34:06.043Z,18.07
2018-02-06T00:36:35.370Z,21.00
2018-02-06T00:39:03.831Z,19.77
2018-02-06T00:41:32.359Z,20.27
2018-02-06T00:44:00.671Z,19.77
2018-02-06T00:46:28.631Z,22.40
2018-02-06T00:48:56.192Z,19.20
2018-02-06T00:51:24.157Z,19.33
2018-02-06T00:53:52.745Z,21.10
2018-02-06T00:56:22.248Z,19.23
2018-02-06T00:58:50.699Z,20.90
2018-02-06T01:01:18.298Z,19.10
2018-02-06T01:03:45.859Z,19.07
2018-02-06T01:06:14.254Z,24.60
2018-02-06T01:08:42.710Z,19.47
2018-02-06T01:11:10.699Z,25.83
2018-02-06T01:13:38.246Z,19.13
2018-02-06T01:16:06.363Z,19.40
2018-02-06T01:18:34.679Z,19.20
2018-02-06T01:21:03.014Z,20.30
2018-02-06T01:23:30.640Z,22.50
2018-02-06T01:25:58.207Z,20.60
2018-02-06T01:28:28.005Z,19.70
2018-02-06T01:30:56.954Z,20.93
2018-02-06T01:33:24.554Z,21.90
2018-02-06T01:35:52.123Z,19.57
2018-02-06T01:38:20.140Z,23.17
2018-02-06T01:40:48.697Z,20.33
2018-02-06T01:43:18.905Z,20.73
2018-02-06T01:45:46.538Z,21.73
2018-02-06T01:48:14.847Z,21.40
2018-02-06T01:50:42.390Z,21.20
2018-02-06T01:53:10.762Z,21.43
2018-02-06T01:55:38.704Z,19.60
2018-02-06T01:58:06.673Z,19.87
2018-02-06T02:00:36.785Z,21.10
2018-02-06T02:03:05.923Z,24.37
2018-02-06T02:05:33.484Z,19.90
2018-02-06T02:08:01.823Z,24.03
2018-02-06T02:10:30.069Z,20.43
2018-02-06T02:12:57.728Z,22.43
2018-02-06T02:15:29.679Z,21.03
2018-02-06T02:17:57.257Z,22.47
2018-02-06T02:20:25.573Z,19.70
2018-02-06T02:22:53.560Z,20.10
2018-02-06T02:25:22.044Z,21.80
2018-02-06T02:27:52.039Z,21.97
2018-02-06T02:30:20.079Z,20.43
2018-02-06T02:32:49.054Z,21.53
2018-02-06T02:35:16.673Z,22.17
2018-02-06T02:37:45.007Z,22.40
2018-02-06T02:40:13.327Z,20.10
2018-02-06T04:39:01.577Z,21.20
2018-02-06T04:41:29.892Z,21.17
2018-02-06T04:43:57.729Z,26.13
2018-02-06T04:46:25.978Z,23.73
2018-02-06T04:48:53.853Z,23.43
2018-02-06T04:51:21.460Z,21.57
2018-02-06T04:53:49.071Z,23.67
2018-02-06T04:56:17.394Z,24.27
2018-02-06T04:58:44.936Z,24.03
2018-02-06T05:01:12.943Z,29.50
2018-02-06T05:03:41.922Z,24.60
2018-02-06T05:06:15.236Z,25.20
2018-02-06T05:08:43.278Z,28.87
2018-02-06T05:11:13.201Z,27.67
2018-02-06T05:13:42.006Z,28.33
2018-02-06T05:16:10.156Z,24.30
2018-02-06T05:18:38.832Z,22.53
2018-02-06T05:21:06.500Z,28.03
2018-02-06T05:23:34.846Z,26.30
2018-02-06T05:26:03.329Z,23.60
2018-02-06T05:28:32.370Z,24.00
2018-02-06T05:31:00.671Z,25.70
2018-02-06T05:33:28.214Z,26.47
2018-02-06T05:35:55.786Z,25.00
2018-02-06T05:38:27.396Z,25.70
2018-02-06T05:40:56.426Z,26.10
2018-02-06T05:43:24.959Z,24.97
2018-02-06T05:45:53.071Z,26.37
2018-02-06T05:48:21.755Z,27.10
2018-02-06T05:50:50.573Z,27.80
2018-02-06T05:53:21.670Z,28.50
2018-02-06T05:55:49.244Z,22.77
2018-02-06T05:58:17.607Z,26.97
2018-02-06T06:00:47.143Z,24.13
2018-02-06T06:03:14.927Z,26.43
2018-02-06T06:05:42.526Z,23.87
2018-02-06T06:08:10.846Z,25.63
2018-02-06T06:10:38.425Z,28.30
2018-02-06T06:13:06.368Z,28.50
2018-02-06T06:15:35.047Z,22.57
2018-02-06T06:18:06.627Z,24.77
2018-02-06T06:20:37.030Z,26.20
2018-02-06T06:23:08.202Z,24.70
2018-02-06T06:25:37.382Z,28.57
2018-02-06T06:28:05.163Z,27.10
2018-02-06T06:30:33.112Z,26.00
2018-02-06T06:33:01.078Z,28.97
2018-02-06T06:35:29.356Z,26.67
2018-02-06T06:37:57.570Z,26.47
2018-02-06T06:40:29.823Z,28.57
2018-02-06T06:43:06.977Z,26.17
2018-02-06T06:45:35.554Z,34.40
2018-02-06T06:48:06.219Z,31.70
2018-02-06T06:50:34.601Z,32.67
2018-02-06T06:53:02.703Z,32.60
2018-02-06T06:55:30.668Z,29.23
2018-02-06T06:58:04.571Z,28.63
2018-02-06T07:00:33.374Z,28.63
2018-02-06T07:03:02.240Z,30.73
2018-02-06T07:05:33.649Z,24.77
2018-02-06T07:08:02.077Z,28.30
2018-02-06T07:10:30.394Z,26.90
2018-02-06T07:12:58.387Z,26.40
2018-02-06T07:18:06.103Z,25.73
2018-02-06T07:20:33.646Z,27.57
2018-02-06T07:23:02.306Z,26.60
2018-02-06T07:25:32.322Z,24.87
2018-02-06T07:28:00.371Z,29.70
2018-02-06T07:30:48.256Z,27.80
2018-02-06T07:33:16.608Z,37.17
2018-02-06T07:35:44.551Z,30.70
2018-02-06T07:38:12.890Z,29.43
2018-02-06T07:40:41.203Z,33.30
2018-02-06T07:43:09.553Z,34.30
2018-02-06T07:45:37.864Z,28.53
2018-02-06T07:48:06.262Z,31.83
2018-02-06T07:50:34.581Z,31.67
2018-02-06T07:53:02.923Z,31.97
2018-02-06T07:55:31.236Z,29.57
2018-02-06T07:57:58.838Z,30.30
2018-02-06T08:00:26.790Z,27.50
2018-02-06T08:02:56.638Z,28.93
2018-02-06T08:05:24.679Z,26.77
2018-02-06T08:07:52.651Z,28.90
2018-02-06T08:10:22.414Z,29.93
2018-02-06T08:12:50.038Z,30.03
2018-02-06T08:15:18.716Z,29.60
2018-02-06T08:17:46.683Z,28.47
2018-02-06T08:20:15.070Z,30.67
2018-02-06T08:22:45.459Z,29.47
2018-02-06T08:25:13.407Z,26.47
2018-02-06T08:27:41.338Z,30.70
2018-02-06T08:30:09.662Z,31.10
2018-02-06T08:32:37.219Z,31.40
2018-02-06T08:35:15.381Z,29.67
2018-02-06T08:37:44.874Z,33.27
2018-02-06T08:40:13.220Z,33.33
2018-02-06T08:42:41.974Z,32.83
2018-02-06T08:45:13.358Z,31.50
2018-02-06T08:47:43.580Z,29.73
2018-02-06T08:50:15.979Z,34.43
2018-02-06T08:52:51.315Z,31.20
2018-02-06T08:55:20.443Z,28.93
2018-02-06T08:57:48.387Z,31.63
2018-02-06T09:00:24.928Z,30.70
2018-02-06T09:03:06.539Z,38.67
2018-02-06T09:05:34.523Z,28.37
2018-02-06T09:08:02.862Z,39.40
2018-02-06T09:10:32.550Z,32.20
2018-02-06T09:13:00.955Z,30.30
2018-02-06T09:15:42.596Z,29.23
2018-02-06T09:18:10.138Z,30.73
2018-02-06T09:23:50.911Z,33.73
2018-02-06T09:26:19.330Z,37.60
2018-02-06T09:28:46.895Z,35.43
2018-02-06T09:31:16.741Z,33.50
2018-02-06T09:34:01.068Z,30.27
2018-02-06T09:36:29.444Z,35.53
2018-02-06T09:39:22.204Z,30.73
2018-02-06T09:41:51.152Z,31.87
2018-02-06T09:44:18.706Z,35.47
2018-02-06T09:46:46.654Z,33.80
2018-02-06T09:49:19.458Z,33.10
2018-02-06T09:51:50.831Z,31.53
2018-02-06T09:54:18.783Z,35.70
2018-02-06T09:56:47.114Z,33.37
2018-02-06T09:59:22.251Z,40.40
2018-02-06T10:02:04.428Z,33.70
2018-02-06T10:04:33.043Z,33.33
2018-02-06T10:07:13.975Z,34.77
2018-02-06T10:09:42.453Z,32.93
2018-02-06T10:12:23.387Z,33.50
2018-02-06T10:14:51.976Z,31.73
2018-02-06T10:17:19.538Z,35.80
2018-02-06T10:19:49.930Z,31.77
2018-02-06T10:22:34.591Z,33.80
2018-02-06T10:25:02.851Z,32.53
2018-02-06T10:27:50.907Z,38.60
2018-02-06T10:30:18.866Z,33.30
2018-02-06T10:32:46.408Z,37.10
2018-02-06T10:35:17.077Z,35.37
2018-02-06T10:37:47.200Z,33.60
2018-02-06T10:43:18.865Z,35.67
2018-02-06T10:45:59.192Z,36.73
2018-02-06T10:48:27.338Z,40.40
2018-02-06T10:50:54.898Z,35.50
2018-02-06T10:53:22.854Z,38.67
2018-02-06T10:56:06.519Z,35.63
2018-02-06T10:58:39.526Z,42.40
2018-02-06T11:01:07.275Z,35.73
2018-02-06T11:03:45.073Z,33.60
2018-02-06T11:06:16.613Z,33.83
2018-02-06T11:08:46.567Z,38.97
2018-02-06T11:11:15.263Z,33.27
2018-02-06T11:13:42.856Z,38.27
2018-02-06T11:16:11.171Z,32.27
2018-02-06T11:21:48.986Z,35.57
2018-02-06T11:27:20.807Z,33.00
2018-02-06T11:29:59.105Z,35.40
2018-02-06T11:32:26.837Z,38.40
2018-02-06T11:35:12.911Z,33.67
2018-02-06T11:38:04.622Z,32.50
2018-02-06T11:40:37.141Z,38.07
2018-02-06T11:43:04.699Z,31.90
2018-02-06T11:45:33.166Z,37.00
2018-02-06T11:48:01.263Z,34.57
2018-02-06T11:50:44.880Z,35.93
2018-02-06T11:53:31.215Z,35.43
2018-02-06T11:55:59.286Z,33.23
2018-02-06T11:58:52.447Z,32.40
2018-02-06T12:01:31.368Z,32.53
2018-02-06T12:06:41.335Z,32.27
2018-02-06T12:09:09.288Z,32.50
2018-02-06T12:11:43.416Z,42.80
2018-02-06T12:14:25.105Z,33.00
2018-02-06T12:16:53.156Z,32.90
2018-02-06T12:19:27.147Z,33.00
2018-02-06T12:22:07.458Z,36.83
2018-02-06T12:24:36.028Z,33.57
2018-02-06T12:27:04.378Z,34.53
2018-02-06T12:29:31.970Z,27.87
2018-02-06T12:32:10.145Z,30.07
2018-02-06T12:34:38.078Z,32.43
2018-02-06T12:37:09.031Z,26.20
2018-02-06T12:39:36.782Z,26.17
2018-02-06T12:42:07.050Z,33.13
2018-02-06T12:44:35.394Z,33.23
2018-02-06T12:47:02.946Z,32.37
2018-02-06T12:49:30.582Z,32.90
2018-02-06T12:54:36.471Z,35.50
2018-02-06T12:57:04.807Z,33.70
2018-02-06T12:59:40.531Z,38.57
2018-02-06T13:02:08.858Z,33.80
2018-02-06T13:04:37.379Z,29.93
2018-02-06T13:07:13.242Z,29.40
2018-02-06T13:09:49.991Z,29.53
2018-02-06T13:12:22.751Z,34.90
2018-02-06T13:15:10.716Z,34.40
2018-02-06T13:17:49.186Z,29.17
2018-02-06T13:20:28.654Z,32.70
2018-02-06T13:22:57.218Z,31.23
2018-02-06T13:25:25.162Z,32.40
2018-02-06T13:27:58.333Z,29.30
2018-02-06T13:30:26.733Z,28.90
2018-02-06T13:32:55.054Z,29.40
2018-02-06T13:35:23.818Z,29.70
2018-02-06T13:37:51.362Z,28.97
2018-02-06T13:40:29.693Z,31.50
2018-02-06T13:43:13.273Z,26.97
2018-02-06T13:45:42.363Z,36.20
2018-02-06T13:48:18.056Z,35.13
2018-02-06T13:51:01.241Z,33.77
2018-02-06T13:53:35.014Z,36.00
2018-02-06T13:56:14.267Z,30.03
2018-02-06T13:58:43.143Z,29.63
2018-02-06T14:01:13.750Z,31.37
2018-02-06T14:03:46.487Z,28.50
2018-02-06T14:06:14.047Z,30.10
2018-02-06T14:08:44.930Z,29.57
2018-02-06T14:11:13.022Z,33.33
2018-02-06T14:13:42.019Z,29.40
2018-02-06T14:16:09.595Z,29.40
2018-02-06T14:18:37.151Z,30.90
2018-02-06T14:21:10.218Z,30.53
2018-02-06T14:24:04.242Z,32.17
2018-02-06T14:26:48.081Z,32.80
2018-02-06T14:29:18.661Z,31.07
2018-02-06T14:31:46.510Z,32.77
2018-02-06T14:34:19.799Z,29.50
2018-02-06T14:36:52.779Z,30.90
2018-02-06T14:39:20.883Z,29.50
2018-02-06T14:41:50.294Z,27.50
2018-02-06T14:44:24.114Z,27.47
2018-02-06T14:46:52.070Z,30.60
2018-02-06T14:49:32.556Z,26.03
2018-02-06T14:52:00.255Z,30.03
2018-02-06T14:54:27.817Z,29.07
2018-02-06T14:57:08.664Z,26.63
2018-02-06T14:59:40.822Z,27.43
2018-02-06T15:02:08.555Z,31.23
2018-02-06T15:04:36.592Z,25.97
2018-02-06T15:07:08.827Z,30.70
2018-02-06T15:09:46.184Z,31.53
2018-02-06T15:12:13.748Z,26.97
2018-02-06T15:14:42.390Z,32.70
2018-02-06T15:17:12.172Z,30.20
2018-02-06T15:19:41.552Z,27.40
2018-02-06T15:22:09.119Z,28.57
2018-02-06T15:24:37.082Z,104.20
2018-02-06T15:27:04.643Z,44.33
2018-02-06T15:29:38.323Z,29.27
2018-02-06T15:32:22.751Z,29.27
2018-02-06T15:34:50.458Z,29.93
2018-02-06T15:37:23.324Z,30.87
2018-02-06T15:39:50.903Z,35.10
2018-02-06T15:42:19.247Z,28.80
2018-02-06T15:44:46.806Z,32.23
2018-02-06T15:47:14.772Z,31.30
2018-02-06T15:49:42.725Z,28.80
2018-02-06T15:52:17.366Z,34.23
2018-02-06T15:57:38.108Z,33.03
2018-02-06T16:00:05.695Z,30.57
2018-02-06T16:02:34.037Z,28.10
2018-02-06T16:05:02.359Z,32.20
2018-02-06T16:07:30.695Z,34.30
2018-02-06T16:09:59.041Z,32.73
2018-02-06T16:15:26.644Z,29.87
2018-02-06T16:17:55.568Z,28.40
2018-02-06T16:20:23.115Z,28.50
2018-02-06T16:22:51.080Z,31.40
2018-02-06T16:25:18.647Z,28.93
2018-02-06T16:27:46.623Z,28.67
2018-02-06T16:30:14.958Z,27.13
2018-02-06T16:32:43.298Z,28.60
2018-02-06T16:35:11.606Z,25.83
2018-02-06T16:37:39.934Z,26.97
2018-02-06T16:40:08.304Z,30.27
2018-02-06T16:42:36.727Z,33.00
2018-02-06T16:45:05.052Z,28.93
2018-02-06T16:47:33.402Z,29.33
2018-02-06T16:50:01.728Z,31.47
2018-02-06T16:52:30.131Z,28.10
2018-02-06T16:54:58.511Z,28.73
2018-02-06T16:57:27.589Z,29.83
2018-02-06T16:59:55.126Z,31.93
2018-02-06T17:02:35.710Z,31.47
2018-02-06T17:05:03.263Z,33.67
2018-02-06T17:07:32.928Z,33.33
2018-02-06T17:10:01.482Z,28.90
2018-02-06T17:12:29.536Z,30.73
2018-02-06T17:14:57.990Z,34.00
2018-02-06T17:17:26.307Z,33.90
2018-02-06T17:19:55.378Z,36.57
2018-02-06T17:22:22.923Z,35.63
2018-02-06T17:24:51.259Z,47.23
2018-02-06T17:27:19.707Z,37.20
2018-02-06T17:29:48.043Z,41.57
2018-02-06T17:32:16.351Z,33.43
2018-02-06T17:34:44.712Z,34.57
2018-02-06T17:37:12.254Z,33.57
2018-02-06T17:39:40.224Z,32.67
2018-02-06T17:42:08.577Z,31.33
2018-02-06T17:44:36.905Z,35.50
2018-02-06T17:47:05.587Z,37.73
2018-02-06T17:49:33.550Z,32.67
2018-02-06T17:52:01.855Z,33.40
2018-02-06T17:54:30.186Z,35.93
2018-02-06T17:56:58.495Z,36.13
2018-02-06T17:59:26.941Z,38.03
2018-02-06T18:01:54.886Z,35.07
2018-02-06T18:04:22.464Z,33.43
2018-02-06T18:06:50.877Z,39.17
2018-02-06T18:09:19.214Z,39.13
2018-02-06T18:11:47.154Z,37.43
2018-02-06T18:14:14.716Z,34.30
2018-02-06T18:16:43.044Z,36.20
2018-02-06T18:19:11.044Z,35.43
2018-02-06T18:21:39.356Z,44.87
2018-02-06T18:24:07.672Z,40.30
2018-02-06T18:26:36.003Z,39.43
2018-02-06T18:29:04.323Z,39.97
2018-02-06T18:31:31.911Z,37.77
2018-02-06T18:33:59.866Z,37.83
2018-02-06T18:36:28.198Z,42.60
2018-02-06T18:38:56.547Z,43.33
2018-02-06T18:41:24.875Z,39.60
2018-02-06T18:43:53.275Z,41.87
2018-02-06T18:46:21.615Z,38.80
2018-02-06T18:48:49.918Z,38.53
2018-02-06T18:51:18.336Z,40.60
2018-02-06T18:53:46.787Z,45.60
2018-02-06T18:56:15.118Z,38.90
2018-02-06T18:58:43.426Z,38.60
2018-02-06T19:01:11.493Z,41.00
2018-02-06T19:03:39.055Z,39.33
2018-02-06T19:06:07.067Z,39.97
2018-02-06T19:08:35.042Z,40.90
2018-02-06T19:11:03.049Z,41.77
2018-02-06T19:13:30.616Z,40.77
2018-02-06T19:15:58.275Z,38.90
2018-02-06T19:18:26.543Z,37.77
2018-02-06T19:20:54.556Z,45.60
2018-02-06T19:23:22.872Z,41.37
2018-02-06T19:25:51.283Z,40.77
2018-02-06T19:28:19.622Z,40.37
2018-02-06T19:30:47.943Z,36.90
2018-02-06T19:33:15.490Z,42.87
2018-02-06T19:35:43.472Z,33.93
2018-02-06T19:38:11.410Z,35.67
2018-02-06T19:40:38.984Z,39.20
2018-02-06T19:43:07.034Z,33.43
2018-02-06T19:45:35.433Z,58.33
2018-02-06T19:48:03.931Z,49.93
2018-02-06T19:50:31.992Z,42.70
2018-02-06T19:53:00.334Z,41.30
2018-02-06T19:55:28.279Z,32.40
2018-02-06T19:57:56.602Z,35.20
2018-02-06T20:00:24.238Z,34.73
2018-02-06T20:02:52.258Z,35.40
2018-02-06T20:05:20.405Z,35.73
2018-02-06T20:07:48.030Z,36.97
2018-02-06T20:10:15.974Z,45.53
2018-02-06T20:12:44.416Z,42.20
2018-02-06T20:15:12.669Z,38.50
2018-02-06T20:17:41.011Z,39.23
2018-02-06T20:20:09.398Z,35.43
2018-02-06T20:22:37.778Z,34.80
2018-02-06T20:25:06.175Z,39.83
2018-02-06T20:27:34.186Z,37.43
2018-02-06T20:30:01.882Z,37.83
2018-02-06T20:32:30.007Z,40.17
2018-02-06T20:34:58.815Z,38.07
2018-02-06T20:37:27.172Z,43.00
2018-02-06T20:39:54.721Z,42.23
2018-02-06T20:42:23.458Z,46.07
2018-02-06T20:44:52.676Z,38.43
2018-02-06T20:47:20.291Z,40.53
2018-02-06T20:49:48.317Z,42.10
2018-02-06T20:52:16.797Z,45.30
2018-02-06T20:54:48.619Z,38.63
2018-02-06T20:57:17.788Z,40.37
2018-02-06T20:59:46.215Z,43.37
2018-02-06T21:02:16.613Z,39.40
2018-02-06T21:04:45.375Z,39.73
2018-02-06T21:07:13.720Z,45.00
2018-02-06T21:09:42.090Z,38.53
2018-02-06T21:12:10.091Z,38.17
2018-02-06T21:14:38.036Z,43.00
2018-02-06T21:17:07.157Z,37.20
2018-02-06T21:19:35.546Z,39.80
2018-02-06T21:22:03.560Z,45.87
2018-02-06T21:24:31.142Z,37.93
2018-02-06T21:26:59.089Z,42.23
2018-02-06T21:29:28.165Z,39.37
2018-02-06T21:31:55.810Z,38.27
2018-02-06T21:34:23.816Z,41.80
2018-02-06T21:36:51.762Z,41.73
2018-02-06T21:39:20.092Z,36.00
2018-02-06T21:41:48.086Z,43.33
2018-02-06T21:44:15.675Z,41.43
2018-02-06T21:46:44.084Z,49.43
2018-02-06T21:49:12.504Z,52.00
2018-02-06T21:51:40.633Z,41.63
2018-02-06T21:54:08.657Z,40.17
2018-02-06T21:56:36.644Z,35.90
2018-02-06T21:59:04.842Z,35.40
2018-02-06T22:01:32.454Z,38.20
2018-02-06T22:04:01.573Z,39.13
2018-02-06T22:06:29.530Z,42.30
2018-02-06T22:08:57.518Z,35.80
2018-02-06T22:11:25.836Z,39.23
2018-02-06T22:13:54.198Z,36.47
2018-02-06T22:16:35.124Z,31.93
2018-02-06T22:19:05.126Z,33.20
2018-02-06T22:21:33.689Z,44.83
2018-02-06T22:24:02.057Z,40.00
2018-02-06T22:26:30.589Z,37.93
2018-02-06T22:28:58.964Z,35.87
2018-02-06T22:31:27.290Z,37.93
2018-02-06T22:33:55.272Z,39.73
2018-02-06T22:36:23.236Z,40.33
2018-02-06T22:38:51.880Z,38.03
2018-02-06T22:41:19.500Z,33.47
2018-02-06T22:43:47.618Z,35.70
2018-02-06T22:46:15.576Z,29.37
2018-02-06T22:48:43.132Z,31.20
2018-02-06T22:51:11.470Z,35.87
2018-02-06T22:53:40.523Z,41.23
2018-02-06T22:56:08.526Z,41.47
2018-02-06T22:58:36.559Z,36.80
2018-02-06T23:01:04.937Z,39.37
2018-02-06T23:03:33.287Z,38.20
2018-02-06T23:06:01.653Z,37.63
2018-02-06T23:08:30.111Z,40.13
2018-02-06T23:10:59.198Z,36.17
2018-02-06T23:13:26.770Z,37.00
2018-02-06T23:15:55.850Z,34.33
2018-02-06T23:18:23.403Z,33.40
2018-02-06T23:20:51.761Z,34.63
2018-02-06T23:23:20.116Z,37.23
2018-02-06T23:25:48.442Z,32.83
2018-02-06T23:28:16.927Z,34.67
2018-02-06T23:30:44.890Z,34.20
2018-02-06T23:33:12.432Z,30.90
2018-02-06T23:35:40.766Z,33.57
2018-02-06T23:38:08.710Z,33.47
2018-02-06T23:40:36.996Z,33.50
2018-02-06T23:43:05.338Z,36.53
2018-02-06T23:45:33.739Z,37.80
2018-02-06T23:48:02.059Z,33.13
2018-02-06T23:50:30.396Z,33.77
2018-02-06T23:52:57.968Z,34.70
2018-02-06T23:55:25.963Z,33.50
2018-02-06T23:57:54.275Z,31.73
